Time,TemperatureF,DewpointF,PressureIn,WindDirection,WindDirectionDegrees,WindSpeedMPH,WindSpeedGustMPH,Humidity,HourlyPrecipIn,Conditions,Clouds,dailyrainin,SoftwareType,DateUTC
2013-02-24 00:04:00,24.5,21.0,30.32,NNE,18,0.0,3.0,85,0.00,,,0.18,weatherlink.com 1.10,2013-02-24 07:04:00,
2013-02-24 00:19:00,24.2,20.0,30.32,NNE,18,0.0,1.0,85,0.00,,,0.18,weatherlink.com 1.10,2013-02-24 07:19:00,
2013-02-24 00:34:00,24.2,20.0,30.31,NE,51,1.0,2.0,83,0.00,,,0.18,weatherlink.com 1.10,2013-02-24 07:34:00,
2013-02-24 00:49:00,24.3,20.0,30.30,NE,51,0.0,1.0,82,0.00,,,0.18,weatherlink.com 1.10,2013-02-24 07:49:00,
2013-02-24 01:04:00,24.4,19.0,30.31,NE,51,0.0,1.0,80,0.00,,,0.18,weatherlink.com 1.10,2013-02-24 08:04:00,
2013-02-24 01:19:00,24.4,19.0,30.30,NE,51,0.0,0.0,79,0.00,,,0.18,weatherlink.com 1.10,2013-02-24 08:19:00,
2013-02-24 01:34:00,24.5,19.0,30.31,NE,51,0.0,1.0,80,0.00,,,0.18,weatherlink.com 1.10,2013-02-24 08:34:00,
2013-02-24 01:49:00,24.4,18.0,30.30,NE,51,0.0,1.0,78,0.00,,,0.18,weatherlink.com 1.10,2013-02-24 08:49:00,
2013-02-24 02:04:00,24.0,18.0,30.29,NE,51,0.0,1.0,79,0.00,,,0.18,weatherlink.com 1.10,2013-02-24 09:04:00,
2013-02-24 02:19:00,23.7,18.0,30.29,NE,51,0.0,1.0,80,0.00,,,0.18,weatherlink.com 1.10,2013-02-24 09:19:00,
2013-02-24 02:34:00,23.5,18.0,30.27,NE,51,0.0,1.0,80,0.00,,,0.18,weatherlink.com 1.10,2013-02-24 09:34:00,
2013-02-24 02:49:00,23.3,19.0,30.26,NE,51,0.0,0.0,82,0.00,,,0.18,weatherlink.com 1.10,2013-02-24 09:49:00,
2013-02-24 03:04:00,23.2,19.0,30.25,NE,51,0.0,0.0,82,0.00,,,0.18,weatherlink.com 1.10,2013-02-24 10:04:00,
2013-02-24 03:19:00,23.0,18.0,30.23,NE,51,0.0,0.0,82,0.00,,,0.18,weatherlink.com 1.10,2013-02-24 10:19:00,
2013-02-24 03:34:00,23.0,19.0,30.23,NE,51,0.0,0.0,84,0.00,,,0.18,weatherlink.com 1.10,2013-02-24 10:34:00,
2013-02-24 03:49:00,22.9,19.0,30.22,NE,51,0.0,1.0,84,0.00,,,0.18,weatherlink.com 1.10,2013-02-24 10:49:00,
2013-02-24 04:04:00,22.7,19.0,30.21,NE,51,0.0,0.0,84,0.00,,,0.18,weatherlink.com 1.10,2013-02-24 11:04:00,
2013-02-24 04:19:00,22.6,18.0,30.21,East,90,1.0,4.0,82,0.00,,,0.18,weatherlink.com 1.10,2013-02-24 11:19:00,
2013-02-24 04:34:00,22.3,16.0,30.20,NE,45,0.0,6.0,77,0.00,,,0.18,weatherlink.com 1.10,2013-02-24 11:34:00,
2013-02-24 04:49:00,21.6,15.0,30.20,NNE,27,2.0,4.0,76,0.00,,,0.18,weatherlink.com 1.10,2013-02-24 11:49:00,
2013-02-24 05:04:00,20.8,14.0,30.20,North,359,0.0,5.0,75,0.00,,,0.18,weatherlink.com 1.10,2013-02-24 12:04:00,
2013-02-24 05:20:00,20.4,12.0,30.21,NNE,14,1.0,6.0,71,0.00,,,0.18,weatherlink.com 1.10,2013-02-24 12:20:00,
2013-02-24 05:35:00,20.2,11.0,30.21,East,82,4.0,6.0,68,0.00,,,0.18,weatherlink.com 1.10,2013-02-24 12:35:00,
2013-02-24 05:50:00,19.7,11.0,30.21,North,359,10.0,13.0,68,0.00,,,0.18,weatherlink.com 1.10,2013-02-24 12:50:00,
2013-02-24 06:05:00,19.4,11.0,30.21,NNE,26,0.0,8.0,71,0.00,,,0.18,weatherlink.com 1.10,2013-02-24 13:05:00,
2013-02-24 06:20:00,19.3,11.0,30.21,North,357,3.0,6.0,71,0.00,,,0.18,weatherlink.com 1.10,2013-02-24 13:20:00,
2013-02-24 06:35:00,18.8,11.0,30.21,NNE,23,0.0,6.0,72,0.00,,,0.18,weatherlink.com 1.10,2013-02-24 13:35:00,
2013-02-24 06:50:00,18.5,12.0,30.21,WNW,303,0.0,6.0,75,0.00,,,0.18,weatherlink.com 1.10,2013-02-24 13:50:00,
2013-02-24 07:05:00,18.2,13.0,30.21,NE,48,3.0,5.0,80,0.00,,,0.18,weatherlink.com 1.10,2013-02-24 14:05:00,
2013-02-24 07:20:00,18.1,12.0,30.21,North,11,0.0,4.0,78,0.00,,,0.18,weatherlink.com 1.10,2013-02-24 14:20:00,
2013-02-24 07:35:00,18.3,12.0,30.21,NE,56,0.0,8.0,76,0.00,,,0.18,weatherlink.com 1.10,2013-02-24 14:35:00,
2013-02-24 07:50:00,18.8,12.0,30.21,NNE,12,0.0,4.0,74,0.00,,,0.18,weatherlink.com 1.10,2013-02-24 14:50:00,
2013-02-24 08:05:00,19.5,11.0,30.22,North,8,0.0,8.0,70,0.00,,,0.18,weatherlink.com 1.10,2013-02-24 15:05:00,
2013-02-24 08:20:00,20.2,11.0,30.22,NNE,12,1.0,9.0,67,0.00,,,0.18,weatherlink.com 1.10,2013-02-24 15:20:00,
2013-02-24 08:35:00,20.4,10.0,30.23,North,359,5.0,13.0,64,0.00,,,0.18,weatherlink.com 1.10,2013-02-24 15:35:00,
2013-02-24 08:50:00,21.2,10.0,30.23,North,349,0.0,6.0,63,0.00,,,0.18,weatherlink.com 1.10,2013-02-24 15:50:00,
2013-02-24 09:05:00,21.8,10.0,30.23,North,359,5.0,12.0,60,0.00,,,0.18,weatherlink.com 1.10,2013-02-24 16:05:00,
2013-02-24 09:20:00,22.6,9.0,30.23,NE,53,4.0,10.0,56,0.00,,,0.18,weatherlink.com 1.10,2013-02-24 16:20:00,
2013-02-24 09:35:00,23.8,7.0,30.23,NNE,25,3.0,13.0,48,0.00,,,0.18,weatherlink.com 1.10,2013-02-24 16:35:00,
2013-02-24 09:50:00,24.1,5.0,30.24,NNE,22,4.0,18.0,44,0.00,,,0.18,weatherlink.com 1.10,2013-02-24 16:50:00,
2013-02-24 10:05:00,24.1,4.0,30.24,East,84,6.0,17.0,42,0.00,,,0.18,weatherlink.com 1.10,2013-02-24 17:05:00,
2013-02-24 10:20:00,24.4,3.0,30.24,NNW,344,5.0,21.0,40,0.00,,,0.18,weatherlink.com 1.10,2013-02-24 17:20:00,
2013-02-24 10:35:00,24.2,4.0,30.25,North,11,7.0,16.0,41,0.00,,,0.18,weatherlink.com 1.10,2013-02-24 17:35:00,
2013-02-24 10:50:00,24.1,3.0,30.25,WNW,302,5.0,17.0,41,0.00,,,0.18,weatherlink.com 1.10,2013-02-24 17:50:00,
2013-02-24 11:05:00,25.2,4.0,30.25,North,359,4.0,16.0,41,0.00,,,0.00,weatherlink.com 1.10,2013-02-24 18:05:00,
2013-02-24 11:20:00,24.6,3.0,30.25,North,5,4.0,13.0,40,0.00,,,0.00,weatherlink.com 1.10,2013-02-24 18:20:00,
2013-02-24 11:35:00,25.6,5.0,30.26,NNE,15,2.0,10.0,42,0.00,,,0.00,weatherlink.com 1.10,2013-02-24 18:35:00,
2013-02-24 11:50:00,27.2,3.0,30.25,NNE,29,11.0,15.0,36,0.00,,,0.00,weatherlink.com 1.10,2013-02-24 18:50:00,
2013-02-24 12:05:00,27.0,3.0,30.25,NW,320,1.0,14.0,35,0.00,,,0.00,weatherlink.com 1.10,2013-02-24 19:05:00,
2013-02-24 12:20:00,26.9,1.0,30.25,NE,37,3.0,10.0,32,0.00,,,0.00,weatherlink.com 1.10,2013-02-24 19:20:00,
2013-02-24 12:35:00,26.6,5.0,30.26,NW,319,5.0,7.0,39,0.00,,,0.00,weatherlink.com 1.10,2013-02-24 19:35:00,
2013-02-24 12:50:00,26.5,5.0,30.26,NE,46,7.0,7.0,40,0.00,,,0.00,weatherlink.com 1.10,2013-02-24 19:50:00,
2013-02-24 13:05:00,27.4,4.0,30.26,North,359,3.0,10.0,36,0.00,,,0.00,weatherlink.com 1.10,2013-02-24 20:05:00,
2013-02-24 13:20:00,27.6,8.0,30.27,NW,319,2.0,13.0,44,0.00,,,0.00,weatherlink.com 1.10,2013-02-24 20:20:00,
2013-02-24 13:35:00,29.7,6.0,30.26,NNE,23,4.0,8.0,36,0.00,,,0.00,weatherlink.com 1.10,2013-02-24 20:35:00,
2013-02-24 13:50:00,28.5,5.0,30.27,NW,309,7.0,14.0,37,0.00,,,0.00,weatherlink.com 1.10,2013-02-24 20:50:00,
2013-02-24 14:05:00,27.8,6.0,30.27,NNW,330,1.0,14.0,40,0.00,,,0.00,weatherlink.com 1.10,2013-02-24 21:05:00,
2013-02-24 14:20:00,28.4,6.0,30.27,WSW,253,2.0,6.0,38,0.00,,,0.00,weatherlink.com 1.10,2013-02-24 21:20:00,
2013-02-24 14:36:00,28.5,5.0,30.27,ENE,74,1.0,10.0,36,0.00,,,0.00,weatherlink.com 1.10,2013-02-24 21:36:00,
2013-02-24 14:51:00,28.4,7.0,30.28,WNW,297,1.0,15.0,41,0.00,,,0.00,weatherlink.com 1.10,2013-02-24 21:51:00,
2013-02-24 15:06:00,30.2,8.0,30.29,West,266,6.0,20.0,40,0.00,,,0.00,weatherlink.com 1.10,2013-02-24 22:06:00,
2013-02-24 15:21:00,29.8,9.0,30.30,NNE,33,3.0,9.0,41,0.00,,,0.00,weatherlink.com 1.10,2013-02-24 22:21:00,
2013-02-24 15:36:00,30.7,8.0,30.30,NNE,20,6.0,10.0,39,0.00,,,0.00,weatherlink.com 1.10,2013-02-24 22:36:00,
2013-02-24 15:51:00,31.2,8.0,30.30,WNW,292,6.0,13.0,38,0.00,,,0.00,weatherlink.com 1.10,2013-02-24 22:51:00,
2013-02-24 16:06:00,30.7,8.0,30.32,North,359,9.0,13.0,38,0.00,,,0.00,weatherlink.com 1.10,2013-02-24 23:06:00,
2013-02-24 16:21:00,30.9,8.0,30.32,WNW,287,2.0,9.0,38,0.00,,,0.00,weatherlink.com 1.10,2013-02-24 23:21:00,
2013-02-24 16:36:00,30.1,8.0,30.33,NNW,338,0.0,13.0,39,0.00,,,0.00,weatherlink.com 1.10,2013-02-24 23:36:00,
2013-02-24 16:51:00,30.7,8.0,30.34,SW,217,0.0,8.0,38,0.00,,,0.00,weatherlink.com 1.10,2013-02-24 23:51:00,
2013-02-24 17:06:00,30.6,6.0,30.35,North,356,4.0,15.0,36,0.00,,,0.00,weatherlink.com 1.10,2013-02-25 00:06:00,
2013-02-24 17:21:00,30.3,8.0,30.36,ENE,70,1.0,9.0,39,0.00,,,0.00,weatherlink.com 1.10,2013-02-25 00:21:00,
2013-02-24 17:36:00,29.7,9.0,30.37,NNE,31,1.0,13.0,41,0.00,,,0.00,weatherlink.com 1.10,2013-02-25 00:36:00,
2013-02-24 17:51:00,28.9,9.0,30.38,NNE,28,2.0,10.0,43,0.00,,,0.00,weatherlink.com 1.10,2013-02-25 00:51:00,
2013-02-24 18:06:00,28.5,9.0,30.38,North,11,5.0,8.0,44,0.00,,,0.00,weatherlink.com 1.10,2013-02-25 01:06:00,
2013-02-24 18:21:00,28.4,8.0,30.39,North,7,3.0,8.0,42,0.00,,,0.00,weatherlink.com 1.10,2013-02-25 01:21:00,
2013-02-24 18:36:00,28.2,8.0,30.39,WNW,299,0.0,9.0,42,0.00,,,0.00,weatherlink.com 1.10,2013-02-25 01:36:00,
2013-02-24 18:51:00,27.8,8.0,30.40,NNW,348,0.0,4.0,43,0.00,,,0.00,weatherlink.com 1.10,2013-02-25 01:51:00,
2013-02-24 19:06:00,27.3,7.0,30.41,NNW,348,0.0,2.0,43,0.00,,,0.00,weatherlink.com 1.10,2013-02-25 02:06:00,
2013-02-24 19:21:00,26.6,7.0,30.42,NNW,348,0.0,1.0,44,0.00,,,0.00,weatherlink.com 1.10,2013-02-25 02:21:00,
2013-02-24 19:36:00,26.0,7.0,30.42,NNW,348,0.0,2.0,44,0.00,,,0.00,weatherlink.com 1.10,2013-02-25 02:36:00,
2013-02-24 19:51:00,25.7,6.0,30.42,North,360,0.0,5.0,44,0.00,,,0.00,weatherlink.com 1.10,2013-02-25 02:51:00,
2013-02-24 20:06:00,25.2,6.0,30.43,North,360,0.0,2.0,44,0.00,,,0.00,weatherlink.com 1.10,2013-02-25 03:06:00,
2013-02-24 20:21:00,24.7,7.0,30.43,NE,43,0.0,0.0,47,0.00,,,0.00,weatherlink.com 1.10,2013-02-25 03:21:00,
2013-02-24 20:36:00,23.4,8.0,30.44,NE,43,0.0,0.0,51,0.00,,,0.00,weatherlink.com 1.10,2013-02-25 03:36:00,
2013-02-24 20:51:00,22.4,7.0,30.45,NE,43,0.0,0.0,51,0.00,,,0.00,weatherlink.com 1.10,2013-02-25 03:51:00,
2013-02-24 21:06:00,21.3,7.0,30.45,NE,43,0.0,0.0,55,0.00,,,0.00,weatherlink.com 1.10,2013-02-25 04:06:00,
2013-02-24 21:21:00,21.0,7.0,30.46,NNE,18,0.0,3.0,55,0.00,,,0.00,weatherlink.com 1.10,2013-02-25 04:21:00,
2013-02-24 21:36:00,22.2,6.0,30.46,North,11,0.0,3.0,51,0.00,,,0.00,weatherlink.com 1.10,2013-02-25 04:36:00,
2013-02-24 21:51:00,23.2,7.0,30.47,NNE,13,0.0,2.0,49,0.00,,,0.00,weatherlink.com 1.10,2013-02-25 04:51:00,
2013-02-24 22:07:00,22.8,7.0,30.48,North,360,0.0,2.0,51,0.00,,,0.00,weatherlink.com 1.10,2013-02-25 05:07:00,
2013-02-24 22:22:00,22.5,6.0,30.48,NNE,28,3.0,5.0,50,0.00,,,0.00,weatherlink.com 1.10,2013-02-25 05:22:00,
2013-02-24 22:37:00,22.9,6.0,30.48,NE,40,1.0,5.0,49,0.00,,,0.00,weatherlink.com 1.10,2013-02-25 05:37:00,
2013-02-24 22:52:00,23.5,6.0,30.48,NNE,25,0.0,7.0,48,0.00,,,0.00,weatherlink.com 1.10,2013-02-25 05:52:00,
2013-02-24 23:07:00,24.4,6.0,30.49,NNE,15,0.0,10.0,46,0.00,,,0.00,weatherlink.com 1.10,2013-02-25 06:07:00,
2013-02-24 23:22:00,24.9,7.0,30.49,North,1,0.0,9.0,46,0.00,,,0.00,weatherlink.com 1.10,2013-02-25 06:22:00,
2013-02-24 23:37:00,24.9,7.0,30.48,NNE,15,4.0,9.0,46,0.00,,,0.00,weatherlink.com 1.10,2013-02-25 06:37:00,
2013-02-24 23:52:00,24.8,7.0,30.50,WNW,290,0.0,7.0,46,0.00,,,0.00,weatherlink.com 1.10,2013-02-25 06:52:00,